sensor_id;sensor_type;location;lat;lon;timestamp;pressure;altitude;pressure_sealevel;temperature;humidity
78685;BME280;68002;52.310;6.990;2023-07-09T00:01:12;101395.75;;;21.27;60.43
78685;BME280;68002;52.310;6.990;2023-07-09T00:03:38;101391.06;;;21.21;60.56
78685;BME280;68002;52.310;6.990;2023-07-09T00:06:04;101395.19;;;21.31;60.20
78685;BME280;68002;52.310;6.990;2023-07-09T00:08:30;101399.19;;;21.35;60.11
78685;BME280;68002;52.310;6.990;2023-07-09T00:10:57;101393.56;;;21.37;59.86
78685;BME280;68002;52.310;6.990;2023-07-09T00:13:24;101402.53;;;21.37;60.02
78685;BME280;68002;52.310;6.990;2023-07-09T00:15:50;101406.13;;;21.38;60.33
78685;BME280;68002;52.310;6.990;2023-07-09T00:18:15;101402.94;;;21.34;60.20
78685;BME280;68002;52.310;6.990;2023-07-09T00:20:41;101401.28;;;21.33;60.26
78685;BME280;68002;52.310;6.990;2023-07-09T00:23:06;101396.19;;;21.30;60.73
78685;BME280;68002;52.310;6.990;2023-07-09T00:25:31;101389.84;;;21.23;60.93
78685;BME280;68002;52.310;6.990;2023-07-09T00:27:56;101387.13;;;21.23;60.97
78685;BME280;68002;52.310;6.990;2023-07-09T00:30:22;101393.63;;;21.22;60.82
78685;BME280;68002;52.310;6.990;2023-07-09T00:32:49;101387.09;;;21.17;60.96
78685;BME280;68002;52.310;6.990;2023-07-09T00:35:14;101391.22;;;21.13;60.90
78685;BME280;68002;52.310;6.990;2023-07-09T00:37:39;101380.47;;;21.05;61.11
78685;BME280;68002;52.310;6.990;2023-07-09T00:40:05;101389.03;;;21.02;61.08
78685;BME280;68002;52.310;6.990;2023-07-09T00:42:31;101385.34;;;20.94;60.99
78685;BME280;68002;52.310;6.990;2023-07-09T00:44:56;101385.56;;;20.93;60.78
78685;BME280;68002;52.310;6.990;2023-07-09T00:50:06;101387.66;;;20.76;61.38
78685;BME280;68002;52.310;6.990;2023-07-09T00:52:42;101391.59;;;20.74;61.38
78685;BME280;68002;52.310;6.990;2023-07-09T00:55:12;101393.66;;;20.72;61.88
78685;BME280;68002;52.310;6.990;2023-07-09T00:57:38;101388.91;;;20.59;62.17
78685;BME280;68002;52.310;6.990;2023-07-09T01:00:09;101391.19;;;20.56;62.45
78685;BME280;68002;52.310;6.990;2023-07-09T01:02:36;101386.50;;;20.50;62.27
78685;BME280;68002;52.310;6.990;2023-07-09T01:05:02;101381.00;;;20.43;62.19
78685;BME280;68002;52.310;6.990;2023-07-09T01:07:29;101393.78;;;20.49;62.32
78685;BME280;68002;52.310;6.990;2023-07-09T01:09:54;101388.75;;;20.46;62.37
78685;BME280;68002;52.310;6.990;2023-07-09T01:12:20;101392.53;;;20.45;62.58
78685;BME280;68002;52.310;6.990;2023-07-09T01:14:47;101394.28;;;20.38;62.80
78685;BME280;68002;52.310;6.990;2023-07-09T01:17:13;101395.88;;;20.33;62.89
78685;BME280;68002;52.310;6.990;2023-07-09T01:19:41;101402.63;;;20.37;62.84
78685;BME280;68002;52.310;6.990;2023-07-09T01:22:07;101391.28;;;20.33;63.01
78685;BME280;68002;52.310;6.990;2023-07-09T01:27:25;101402.44;;;20.24;63.01
78685;BME280;68002;52.310;6.990;2023-07-09T01:29:51;101399.09;;;20.22;63.24
78685;BME280;68002;52.310;6.990;2023-07-09T01:32:17;101392.88;;;20.13;63.53
78685;BME280;68002;52.310;6.990;2023-07-09T01:34:43;101395.13;;;20.10;63.98
78685;BME280;68002;52.310;6.990;2023-07-09T01:37:08;101390.63;;;20.02;63.90
78685;BME280;68002;52.310;6.990;2023-07-09T01:39:33;101389.59;;;20.03;63.50
78685;BME280;68002;52.310;6.990;2023-07-09T01:41:58;101389.78;;;20.01;63.98
78685;BME280;68002;52.310;6.990;2023-07-09T01:44:24;101397.34;;;19.91;64.17
78685;BME280;68002;52.310;6.990;2023-07-09T01:46:49;101397.28;;;19.85;64.25
78685;BME280;68002;52.310;6.990;2023-07-09T01:49:14;101399.69;;;19.80;64.53
78685;BME280;68002;52.310;6.990;2023-07-09T01:51:39;101404.72;;;19.68;65.36
78685;BME280;68002;52.310;6.990;2023-07-09T01:54:05;101406.78;;;19.66;64.65
78685;BME280;68002;52.310;6.990;2023-07-09T01:56:30;101399.66;;;19.65;64.81
78685;BME280;68002;52.310;6.990;2023-07-09T01:58:55;101402.56;;;19.64;65.21
78685;BME280;68002;52.310;6.990;2023-07-09T02:01:21;101388.28;;;19.47;65.31
78685;BME280;68002;52.310;6.990;2023-07-09T02:03:46;101398.97;;;19.49;65.46
78685;BME280;68002;52.310;6.990;2023-07-09T02:06:11;101401.31;;;19.52;65.47
78685;BME280;68002;52.310;6.990;2023-07-09T02:08:37;101402.91;;;19.46;65.56
78685;BME280;68002;52.310;6.990;2023-07-09T02:11:03;101400.38;;;19.45;66.00
78685;BME280;68002;52.310;6.990;2023-07-09T02:13:28;101398.66;;;19.44;65.71
78685;BME280;68002;52.310;6.990;2023-07-09T02:15:53;101400.25;;;19.38;65.78
78685;BME280;68002;52.310;6.990;2023-07-09T02:18:19;101403.44;;;19.42;66.20
78685;BME280;68002;52.310;6.990;2023-07-09T02:20:46;101403.16;;;19.37;66.18
78685;BME280;68002;52.310;6.990;2023-07-09T02:23:11;101405.66;;;19.38;66.15
78685;BME280;68002;52.310;6.990;2023-07-09T02:25:36;101412.13;;;19.37;66.30
78685;BME280;68002;52.310;6.990;2023-07-09T02:28:01;101409.41;;;19.37;66.61
78685;BME280;68002;52.310;6.990;2023-07-09T02:30:27;101405.56;;;19.32;66.79
78685;BME280;68002;52.310;6.990;2023-07-09T02:32:52;101405.06;;;19.28;66.86
78685;BME280;68002;52.310;6.990;2023-07-09T02:35:17;101406.44;;;19.24;66.71
78685;BME280;68002;52.310;6.990;2023-07-09T02:37:42;101412.88;;;19.23;66.88
78685;BME280;68002;52.310;6.990;2023-07-09T02:40:08;101414.91;;;19.21;66.86
78685;BME280;68002;52.310;6.990;2023-07-09T02:42:34;101410.06;;;19.17;67.25
78685;BME280;68002;52.310;6.990;2023-07-09T02:44:59;101412.28;;;19.13;67.41
78685;BME280;68002;52.310;6.990;2023-07-09T02:47:24;101406.66;;;19.15;67.78
78685;BME280;68002;52.310;6.990;2023-07-09T02:49:50;101420.59;;;19.12;67.26
78685;BME280;68002;52.310;6.990;2023-07-09T02:52:15;101425.00;;;19.13;67.36
78685;BME280;68002;52.310;6.990;2023-07-09T02:54:40;101424.81;;;19.14;67.37
78685;BME280;68002;52.310;6.990;2023-07-09T02:57:06;101429.75;;;19.11;67.54
78685;BME280;68002;52.310;6.990;2023-07-09T02:59:32;101428.97;;;19.02;67.55
78685;BME280;68002;52.310;6.990;2023-07-09T03:01:57;101431.19;;;18.98;67.74
78685;BME280;68002;52.310;6.990;2023-07-09T03:04:22;101427.53;;;18.91;68.26
78685;BME280;68002;52.310;6.990;2023-07-09T03:06:48;101433.09;;;18.90;68.33
78685;BME280;68002;52.310;6.990;2023-07-09T03:09:13;101435.47;;;18.93;68.43
78685;BME280;68002;52.310;6.990;2023-07-09T03:11:38;101429.06;;;18.86;68.43
78685;BME280;68002;52.310;6.990;2023-07-09T03:14:04;101435.16;;;18.88;68.94
78685;BME280;68002;52.310;6.990;2023-07-09T03:16:32;101430.75;;;18.87;68.98
78685;BME280;68002;52.310;6.990;2023-07-09T03:18:58;101438.75;;;18.80;68.98
78685;BME280;68002;52.310;6.990;2023-07-09T03:21:25;101434.16;;;18.81;68.91
78685;BME280;68002;52.310;6.990;2023-07-09T03:23:51;101439.59;;;18.81;69.14
78685;BME280;68002;52.310;6.990;2023-07-09T03:26:16;101430.16;;;18.77;69.01
78685;BME280;68002;52.310;6.990;2023-07-09T03:28:41;101430.97;;;18.77;69.45
78685;BME280;68002;52.310;6.990;2023-07-09T03:31:07;101440.63;;;18.80;69.26
78685;BME280;68002;52.310;6.990;2023-07-09T03:33:33;101438.28;;;18.77;69.14
78685;BME280;68002;52.310;6.990;2023-07-09T03:35:58;101435.22;;;18.72;69.68
78685;BME280;68002;52.310;6.990;2023-07-09T03:38:23;101437.75;;;18.73;69.88
78685;BME280;68002;52.310;6.990;2023-07-09T03:40:52;101435.56;;;18.77;69.78
78685;BME280;68002;52.310;6.990;2023-07-09T03:43:18;101441.81;;;18.77;69.71
78685;BME280;68002;52.310;6.990;2023-07-09T03:45:44;101443.69;;;18.77;69.67
78685;BME280;68002;52.310;6.990;2023-07-09T03:48:10;101442.00;;;18.76;69.63
78685;BME280;68002;52.310;6.990;2023-07-09T03:50:35;101426.78;;;18.67;70.06
78685;BME280;68002;52.310;6.990;2023-07-09T03:53:00;101448.75;;;18.80;70.08
78685;BME280;68002;52.310;6.990;2023-07-09T03:55:25;101437.53;;;18.83;70.06
78685;BME280;68002;52.310;6.990;2023-07-09T03:57:51;101438.22;;;18.85;70.15
78685;BME280;68002;52.310;6.990;2023-07-09T04:00:16;101433.47;;;18.87;69.95
78685;BME280;68002;52.310;6.990;2023-07-09T04:02:42;101437.50;;;18.91;70.11
78685;BME280;68002;52.310;6.990;2023-07-09T04:05:07;101440.81;;;19.01;69.93
78685;BME280;68002;52.310;6.990;2023-07-09T04:07:32;101438.09;;;19.01;69.76
78685;BME280;68002;52.310;6.990;2023-07-09T04:09:57;101450.97;;;19.07;69.86
78685;BME280;68002;52.310;6.990;2023-07-09T04:12:23;101446.88;;;19.11;69.58
78685;BME280;68002;52.310;6.990;2023-07-09T04:14:48;101451.75;;;19.16;69.87
78685;BME280;68002;52.310;6.990;2023-07-09T04:17:13;101444.13;;;19.19;69.83
78685;BME280;68002;52.310;6.990;2023-07-09T04:19:38;101449.94;;;19.31;69.88
78685;BME280;68002;52.310;6.990;2023-07-09T04:22:04;101452.47;;;19.40;69.84
78685;BME280;68002;52.310;6.990;2023-07-09T04:24:31;101445.56;;;19.52;69.58
78685;BME280;68002;52.310;6.990;2023-07-09T04:26:56;101440.13;;;19.52;69.28
78685;BME280;68002;52.310;6.990;2023-07-09T04:29:22;101448.03;;;19.62;69.41
78685;BME280;68002;52.310;6.990;2023-07-09T04:31:48;101447.78;;;19.71;69.03
78685;BME280;68002;52.310;6.990;2023-07-09T04:34:13;101450.91;;;19.83;68.61
78685;BME280;68002;52.310;6.990;2023-07-09T04:36:39;101446.03;;;19.93;68.80
78685;BME280;68002;52.310;6.990;2023-07-09T04:39:04;101438.38;;;19.96;68.94
78685;BME280;68002;52.310;6.990;2023-07-09T04:41:29;101438.97;;;20.07;68.40
78685;BME280;68002;52.310;6.990;2023-07-09T04:43:54;101433.91;;;20.18;67.99
78685;BME280;68002;52.310;6.990;2023-07-09T04:46:20;101433.19;;;20.24;67.43
78685;BME280;68002;52.310;6.990;2023-07-09T04:48:45;101440.41;;;20.32;67.41
78685;BME280;68002;52.310;6.990;2023-07-09T04:51:10;101435.91;;;20.39;67.23
78685;BME280;68002;52.310;6.990;2023-07-09T04:53:35;101428.66;;;20.46;67.06
78685;BME280;68002;52.310;6.990;2023-07-09T04:56:01;101440.50;;;20.53;66.83
78685;BME280;68002;52.310;6.990;2023-07-09T04:58:26;101446.88;;;20.60;66.34
78685;BME280;68002;52.310;6.990;2023-07-09T05:00:51;101439.63;;;20.67;66.84
78685;BME280;68002;52.310;6.990;2023-07-09T05:03:18;101446.00;;;20.74;66.42
78685;BME280;68002;52.310;6.990;2023-07-09T05:05:45;101447.09;;;20.79;66.22
78685;BME280;68002;52.310;6.990;2023-07-09T05:08:12;101447.47;;;20.91;66.17
78685;BME280;68002;52.310;6.990;2023-07-09T05:10:49;101444.59;;;20.99;66.19
78685;BME280;68002;52.310;6.990;2023-07-09T05:13:15;101448.56;;;21.11;65.37
78685;BME280;68002;52.310;6.990;2023-07-09T05:15:43;101450.38;;;21.25;65.96
78685;BME280;68002;52.310;6.990;2023-07-09T05:18:09;101454.84;;;21.33;66.49
78685;BME280;68002;52.310;6.990;2023-07-09T05:20:34;101450.91;;;21.35;66.37
78685;BME280;68002;52.310;6.990;2023-07-09T05:23:00;101446.38;;;21.42;66.28
78685;BME280;68002;52.310;6.990;2023-07-09T05:25:25;101440.41;;;21.53;65.40
78685;BME280;68002;52.310;6.990;2023-07-09T05:27:51;101440.97;;;21.70;64.53
78685;BME280;68002;52.310;6.990;2023-07-09T05:30:16;101439.88;;;21.85;63.45
78685;BME280;68002;52.310;6.990;2023-07-09T05:32:41;101444.56;;;21.98;63.10
78685;BME280;68002;52.310;6.990;2023-07-09T05:35:07;101435.63;;;22.11;62.34
78685;BME280;68002;52.310;6.990;2023-07-09T05:37:32;101444.34;;;22.27;62.22
78685;BME280;68002;52.310;6.990;2023-07-09T05:39:57;101431.84;;;22.39;61.70
78685;BME280;68002;52.310;6.990;2023-07-09T05:42:23;101440.09;;;22.52;61.36
78685;BME280;68002;52.310;6.990;2023-07-09T05:44:48;101443.09;;;22.64;61.51
78685;BME280;68002;52.310;6.990;2023-07-09T05:47:13;101434.13;;;22.70;61.11
78685;BME280;68002;52.310;6.990;2023-07-09T05:49:38;101437.75;;;22.83;61.14
78685;BME280;68002;52.310;6.990;2023-07-09T05:52:04;101440.50;;;22.96;60.82
78685;BME280;68002;52.310;6.990;2023-07-09T05:54:29;101435.28;;;23.08;60.52
78685;BME280;68002;52.310;6.990;2023-07-09T05:56:55;101438.28;;;23.26;60.45
78685;BME280;68002;52.310;6.990;2023-07-09T05:59:20;101435.19;;;23.42;59.90
78685;BME280;68002;52.310;6.990;2023-07-09T06:01:45;101443.19;;;23.63;59.67
78685;BME280;68002;52.310;6.990;2023-07-09T06:04:10;101449.94;;;23.80;59.34
78685;BME280;68002;52.310;6.990;2023-07-09T06:06:36;101447.41;;;23.99;59.25
78685;BME280;68002;52.310;6.990;2023-07-09T06:09:01;101436.69;;;24.17;58.38
78685;BME280;68002;52.310;6.990;2023-07-09T06:11:26;101450.06;;;24.38;57.86
78685;BME280;68002;52.310;6.990;2023-07-09T06:13:51;101458.25;;;24.51;58.00
78685;BME280;68002;52.310;6.990;2023-07-09T06:16:17;101448.53;;;24.61;58.10
78685;BME280;68002;52.310;6.990;2023-07-09T06:18:42;101441.13;;;24.81;57.85
78685;BME280;68002;52.310;6.990;2023-07-09T06:21:07;101452.34;;;25.11;57.10
78685;BME280;68002;52.310;6.990;2023-07-09T06:23:33;101448.22;;;25.40;56.28
78685;BME280;68002;52.310;6.990;2023-07-09T06:25:58;101447.19;;;25.65;56.00
78685;BME280;68002;52.310;6.990;2023-07-09T06:28:25;101449.06;;;25.89;55.43
78685;BME280;68002;52.310;6.990;2023-07-09T06:30:51;101457.16;;;26.09;54.55
78685;BME280;68002;52.310;6.990;2023-07-09T06:33:18;101457.84;;;26.23;54.38
78685;BME280;68002;52.310;6.990;2023-07-09T06:35:51;101459.47;;;26.30;53.53
78685;BME280;68002;52.310;6.990;2023-07-09T06:38:17;101450.19;;;26.49;52.87
78685;BME280;68002;52.310;6.990;2023-07-09T06:40:44;101448.34;;;26.61;52.58
78685;BME280;68002;52.310;6.990;2023-07-09T06:43:09;101442.34;;;26.89;52.36
78685;BME280;68002;52.310;6.990;2023-07-09T06:45:35;101450.66;;;27.12;52.08
78685;BME280;68002;52.310;6.990;2023-07-09T06:48:00;101454.59;;;27.34;51.16
78685;BME280;68002;52.310;6.990;2023-07-09T06:50:26;101449.19;;;27.57;50.78
78685;BME280;68002;52.310;6.990;2023-07-09T06:52:51;101455.81;;;27.91;50.08
78685;BME280;68002;52.310;6.990;2023-07-09T06:55:17;101450.59;;;28.01;49.36
78685;BME280;68002;52.310;6.990;2023-07-09T06:57:42;101455.72;;;28.21;48.71
78685;BME280;68002;52.310;6.990;2023-07-09T07:00:08;101461.94;;;28.39;47.84
78685;BME280;68002;52.310;6.990;2023-07-09T07:02:33;101449.25;;;28.50;48.16
78685;BME280;68002;52.310;6.990;2023-07-09T07:04:58;101455.13;;;28.65;48.58
78685;BME280;68002;52.310;6.990;2023-07-09T07:07:24;101451.72;;;28.86;47.56
78685;BME280;68002;52.310;6.990;2023-07-09T07:09:49;101455.84;;;29.00;47.09
78685;BME280;68002;52.310;6.990;2023-07-09T07:12:28;101449.78;;;29.26;46.16
78685;BME280;68002;52.310;6.990;2023-07-09T07:14:55;101447.16;;;29.48;46.04
78685;BME280;68002;52.310;6.990;2023-07-09T07:17:21;101447.63;;;29.73;45.07
78685;BME280;68002;52.310;6.990;2023-07-09T07:19:46;101455.38;;;29.93;44.50
78685;BME280;68002;52.310;6.990;2023-07-09T07:22:12;101456.75;;;29.90;44.31
78685;BME280;68002;52.310;6.990;2023-07-09T07:24:37;101452.22;;;29.84;44.19
78685;BME280;68002;52.310;6.990;2023-07-09T07:27:02;101446.78;;;29.73;44.32
78685;BME280;68002;52.310;6.990;2023-07-09T07:29:28;101453.22;;;29.78;44.44
78685;BME280;68002;52.310;6.990;2023-07-09T07:31:53;101455.97;;;29.95;43.94
78685;BME280;68002;52.310;6.990;2023-07-09T07:34:19;101457.88;;;30.11;44.42
78685;BME280;68002;52.310;6.990;2023-07-09T07:36:44;101454.91;;;30.29;43.90
78685;BME280;68002;52.310;6.990;2023-07-09T07:39:09;101457.47;;;30.57;43.55
78685;BME280;68002;52.310;6.990;2023-07-09T07:41:34;101454.50;;;30.80;43.36
78685;BME280;68002;52.310;6.990;2023-07-09T07:44:00;101456.25;;;31.08;42.02
78685;BME280;68002;52.310;6.990;2023-07-09T07:46:25;101450.53;;;31.19;41.70
78685;BME280;68002;52.310;6.990;2023-07-09T07:48:50;101456.91;;;31.41;41.97
78685;BME280;68002;52.310;6.990;2023-07-09T07:51:15;101459.28;;;31.59;41.04
78685;BME280;68002;52.310;6.990;2023-07-09T07:53:40;101455.91;;;31.84;40.88
78685;BME280;68002;52.310;6.990;2023-07-09T07:56:06;101453.53;;;31.98;40.41
78685;BME280;68002;52.310;6.990;2023-07-09T07:58:31;101455.66;;;32.22;39.88
78685;BME280;68002;52.310;6.990;2023-07-09T08:00:57;101455.19;;;32.30;39.65
78685;BME280;68002;52.310;6.990;2023-07-09T08:03:23;101448.22;;;32.28;39.95
78685;BME280;68002;52.310;6.990;2023-07-09T08:05:50;101447.53;;;32.47;39.69
78685;BME280;68002;52.310;6.990;2023-07-09T08:08:15;101450.38;;;32.63;38.50
78685;BME280;68002;52.310;6.990;2023-07-09T08:10:40;101447.63;;;32.68;38.32
78685;BME280;68002;52.310;6.990;2023-07-09T08:13:06;101453.41;;;32.56;38.77
78685;BME280;68002;52.310;6.990;2023-07-09T08:15:31;101445.47;;;32.80;38.41
78685;BME280;68002;52.310;6.990;2023-07-09T08:17:56;101447.28;;;33.11;38.73
78685;BME280;68002;52.310;6.990;2023-07-09T08:20:21;101440.69;;;33.42;37.69
78685;BME280;68002;52.310;6.990;2023-07-09T08:22:46;101447.94;;;33.68;37.71
78685;BME280;68002;52.310;6.990;2023-07-09T08:25:12;101444.31;;;33.93;37.42
78685;BME280;68002;52.310;6.990;2023-07-09T08:27:37;101443.25;;;34.04;37.54
78685;BME280;68002;52.310;6.990;2023-07-09T08:30:03;101433.44;;;34.36;36.05
78685;BME280;68002;52.310;6.990;2023-07-09T08:32:28;101433.94;;;34.64;35.38
78685;BME280;68002;52.310;6.990;2023-07-09T08:34:53;101433.03;;;34.83;34.89
78685;BME280;68002;52.310;6.990;2023-07-09T08:37:18;101434.06;;;35.02;34.52
78685;BME280;68002;52.310;6.990;2023-07-09T08:39:44;101434.81;;;35.18;34.32
78685;BME280;68002;52.310;6.990;2023-07-09T08:42:11;101429.13;;;35.38;34.30
78685;BME280;68002;52.310;6.990;2023-07-09T08:47:33;101425.16;;;35.49;33.75
78685;BME280;68002;52.310;6.990;2023-07-09T08:50:09;101415.47;;;35.36;32.91
78685;BME280;68002;52.310;6.990;2023-07-09T08:52:38;101418.84;;;35.33;33.40
78685;BME280;68002;52.310;6.990;2023-07-09T08:55:08;101422.75;;;35.32;33.28
78685;BME280;68002;52.310;6.990;2023-07-09T08:57:38;101421.28;;;35.45;33.34
78685;BME280;68002;52.310;6.990;2023-07-09T09:00:14;101421.03;;;35.75;33.37
78685;BME280;68002;52.310;6.990;2023-07-09T09:02:52;101417.09;;;36.10;32.68
78685;BME280;68002;52.310;6.990;2023-07-09T09:05:21;101426.28;;;36.39;31.85
78685;BME280;68002;52.310;6.990;2023-07-09T09:10:54;101427.47;;;36.57;31.25
78685;BME280;68002;52.310;6.990;2023-07-09T09:13:25;101421.16;;;36.93;32.25
78685;BME280;68002;52.310;6.990;2023-07-09T09:15:56;101419.59;;;37.24;32.00
78685;BME280;68002;52.310;6.990;2023-07-09T09:18:26;101422.19;;;37.40;31.35
78685;BME280;68002;52.310;6.990;2023-07-09T09:21:10;101415.97;;;37.43;30.55
78685;BME280;68002;52.310;6.990;2023-07-09T09:23:44;101413.25;;;37.56;30.72
78685;BME280;68002;52.310;6.990;2023-07-09T09:26:18;101415.03;;;37.66;29.22
78685;BME280;68002;52.310;6.990;2023-07-09T09:28:46;101419.53;;;37.80;28.87
78685;BME280;68002;52.310;6.990;2023-07-09T09:31:11;101418.91;;;38.02;28.61
78685;BME280;68002;52.310;6.990;2023-07-09T09:33:42;101414.38;;;38.19;28.17
78685;BME280;68002;52.310;6.990;2023-07-09T09:36:16;101416.34;;;38.46;27.78
78685;BME280;68002;52.310;6.990;2023-07-09T09:38:42;101420.94;;;38.69;27.46
78685;BME280;68002;52.310;6.990;2023-07-09T09:41:13;101423.75;;;38.69;26.40
78685;BME280;68002;52.310;6.990;2023-07-09T09:43:41;101431.63;;;38.67;26.63
78685;BME280;68002;52.310;6.990;2023-07-09T09:46:07;101423.09;;;38.72;27.42
78685;BME280;68002;52.310;6.990;2023-07-09T09:48:32;101417.06;;;38.92;27.25
78685;BME280;68002;52.310;6.990;2023-07-09T09:50:58;101426.19;;;39.11;27.88
78685;BME280;68002;52.310;6.990;2023-07-09T09:53:24;101418.72;;;39.43;27.30
78685;BME280;68002;52.310;6.990;2023-07-09T09:55:52;101411.22;;;39.52;27.46
78685;BME280;68002;52.310;6.990;2023-07-09T09:58:18;101420.88;;;39.46;26.47
78685;BME280;68002;52.310;6.990;2023-07-09T10:00:52;101412.78;;;39.22;25.71
78685;BME280;68002;52.310;6.990;2023-07-09T10:03:18;101417.28;;;39.09;26.46
78685;BME280;68002;52.310;6.990;2023-07-09T10:05:58;101420.16;;;39.04;26.06
78685;BME280;68002;52.310;6.990;2023-07-09T10:08:50;101417.28;;;39.09;25.77
78685;BME280;68002;52.310;6.990;2023-07-09T10:14:01;101419.13;;;39.50;25.40
78685;BME280;68002;52.310;6.990;2023-07-09T10:16:34;101405.88;;;39.64;25.24
78685;BME280;68002;52.310;6.990;2023-07-09T10:19:15;101412.34;;;39.73;25.37
78685;BME280;68002;52.310;6.990;2023-07-09T10:21:50;101417.25;;;39.89;24.93
78685;BME280;68002;52.310;6.990;2023-07-09T10:27:29;101402.13;;;39.68;25.70
78685;BME280;68002;52.310;6.990;2023-07-09T10:35:42;101398.59;;;40.07;24.35
78685;BME280;68002;52.310;6.990;2023-07-09T10:38:20;101396.06;;;40.05;25.54
78685;BME280;68002;52.310;6.990;2023-07-09T10:40:55;101397.75;;;40.06;24.50
78685;BME280;68002;52.310;6.990;2023-07-09T10:43:30;101400.63;;;40.24;23.24
78685;BME280;68002;52.310;6.990;2023-07-09T10:46:02;101394.94;;;40.06;23.16
78685;BME280;68002;52.310;6.990;2023-07-09T10:48:40;101388.19;;;40.07;23.60
78685;BME280;68002;52.310;6.990;2023-07-09T10:51:23;101389.78;;;40.31;22.85
78685;BME280;68002;52.310;6.990;2023-07-09T10:53:56;101379.13;;;40.41;23.52
78685;BME280;68002;52.310;6.990;2023-07-09T10:56:26;101380.31;;;40.57;23.79
78685;BME280;68002;52.310;6.990;2023-07-09T10:59:03;101376.19;;;40.63;23.00
78685;BME280;68002;52.310;6.990;2023-07-09T11:01:40;101367.84;;;40.80;23.61
78685;BME280;68002;52.310;6.990;2023-07-09T11:04:11;101364.97;;;40.63;22.03
78685;BME280;68002;52.310;6.990;2023-07-09T11:06:46;101365.78;;;40.55;23.39
78685;BME280;68002;52.310;6.990;2023-07-09T11:09:26;101371.25;;;40.69;23.21
78685;BME280;68002;52.310;6.990;2023-07-09T11:11:55;101368.53;;;40.86;21.46
78685;BME280;68002;52.310;6.990;2023-07-09T11:14:46;101374.09;;;40.77;22.73
78685;BME280;68002;52.310;6.990;2023-07-09T11:17:19;101367.84;;;40.97;21.63
78685;BME280;68002;52.310;6.990;2023-07-09T11:19:47;101365.72;;;41.12;21.39
78685;BME280;68002;52.310;6.990;2023-07-09T11:22:25;101370.97;;;41.04;21.51
78685;BME280;68002;52.310;6.990;2023-07-09T11:25:11;101376.97;;;41.20;20.76
78685;BME280;68002;52.310;6.990;2023-07-09T11:28:00;101357.25;;;41.54;21.33
78685;BME280;68002;52.310;6.990;2023-07-09T11:30:28;101352.66;;;41.33;21.14
78685;BME280;68002;52.310;6.990;2023-07-09T11:32:57;101346.88;;;41.03;21.05
78685;BME280;68002;52.310;6.990;2023-07-09T11:35:25;101347.34;;;40.97;21.74
78685;BME280;68002;52.310;6.990;2023-07-09T11:37:51;101344.56;;;41.05;20.67
78685;BME280;68002;52.310;6.990;2023-07-09T11:40:17;101348.06;;;41.20;21.90
78685;BME280;68002;52.310;6.990;2023-07-09T11:42:55;101343.72;;;41.14;21.22
78685;BME280;68002;52.310;6.990;2023-07-09T11:45:26;101333.66;;;41.38;22.03
78685;BME280;68002;52.310;6.990;2023-07-09T11:48:13;101334.91;;;41.75;20.28
78685;BME280;68002;52.310;6.990;2023-07-09T11:50:45;101324.22;;;41.68;20.24
78685;BME280;68002;52.310;6.990;2023-07-09T11:53:52;101322.41;;;41.38;22.03
78685;BME280;68002;52.310;6.990;2023-07-09T11:56:22;101314.31;;;41.62;21.09
78685;BME280;68002;52.310;6.990;2023-07-09T11:58:54;101306.81;;;41.75;21.05
78685;BME280;68002;52.310;6.990;2023-07-09T12:01:24;101311.63;;;41.66;20.68
78685;BME280;68002;52.310;6.990;2023-07-09T12:03:51;101307.00;;;41.70;20.30
78685;BME280;68002;52.310;6.990;2023-07-09T12:06:18;101309.91;;;41.82;20.79
78685;BME280;68002;52.310;6.990;2023-07-09T12:08:45;101314.13;;;42.05;20.01
78685;BME280;68002;52.310;6.990;2023-07-09T12:11:26;101295.81;;;41.44;20.03
78685;BME280;68002;52.310;6.990;2023-07-09T12:13:52;101307.41;;;41.08;20.83
78685;BME280;68002;52.310;6.990;2023-07-09T12:16:33;101302.94;;;41.33;19.94
78685;BME280;68002;52.310;6.990;2023-07-09T12:18:58;101313.00;;;41.08;20.53
78685;BME280;68002;52.310;6.990;2023-07-09T12:21:25;101308.56;;;41.33;20.49
78685;BME280;68002;52.310;6.990;2023-07-09T12:23:52;101311.47;;;41.54;20.31
78685;BME280;68002;52.310;6.990;2023-07-09T12:26:19;101323.56;;;41.63;20.48
78685;BME280;68002;52.310;6.990;2023-07-09T12:28:56;101313.28;;;41.67;21.03
78685;BME280;68002;52.310;6.990;2023-07-09T12:31:28;101314.41;;;41.83;21.01
78685;BME280;68002;52.310;6.990;2023-07-09T12:33:54;101315.16;;;42.01;19.80
78685;BME280;68002;52.310;6.990;2023-07-09T12:36:20;101318.63;;;42.06;20.04
78685;BME280;68002;52.310;6.990;2023-07-09T12:38:48;101317.44;;;42.07;19.58
78685;BME280;68002;52.310;6.990;2023-07-09T12:41:23;101318.81;;;42.01;20.20
78685;BME280;68002;52.310;6.990;2023-07-09T12:43:51;101315.00;;;41.97;19.85
78685;BME280;68002;52.310;6.990;2023-07-09T12:46:17;101309.22;;;41.85;20.40
78685;BME280;68002;52.310;6.990;2023-07-09T12:48:43;101310.00;;;41.39;20.19
78685;BME280;68002;52.310;6.990;2023-07-09T12:51:09;101310.22;;;41.26;20.06
78685;BME280;68002;52.310;6.990;2023-07-09T12:53:36;101302.13;;;41.24;20.21
78685;BME280;68002;52.310;6.990;2023-07-09T12:56:01;101300.13;;;41.16;20.69
78685;BME280;68002;52.310;6.990;2023-07-09T12:58:32;101293.22;;;40.79;20.62
78685;BME280;68002;52.310;6.990;2023-07-09T13:01:00;101293.72;;;40.98;20.95
78685;BME280;68002;52.310;6.990;2023-07-09T13:03:31;101279.16;;;41.05;20.81
78685;BME280;68002;52.310;6.990;2023-07-09T13:05:59;101278.81;;;41.15;20.09
78685;BME280;68002;52.310;6.990;2023-07-09T13:08:26;101281.63;;;41.15;20.22
78685;BME280;68002;52.310;6.990;2023-07-09T13:10:52;101274.34;;;41.31;20.84
78685;BME280;68002;52.310;6.990;2023-07-09T13:13:19;101258.16;;;41.37;20.98
78685;BME280;68002;52.310;6.990;2023-07-09T13:15:54;101265.28;;;41.26;21.18